Terminal Aerodrome Forecast
Issued by NWS

Home | Current Version | Previous Version | Text Only | Print | Product List | Glossary On
Versions: 1 2 3 4 5 6 7 8 9 10 11 12 13 14 15 16 17 18 19 20 21 22
559
FTAK31 PAJN 240526
TAFAYA
TAF
PAYA 240526Z 2406/2506 VRB03KT P6SM VCSH BKN013 OVC030
      TEMPO 2406/2409 SCT015 SCT025
     FM240900 VRB03KT P6SM OVC006
     FM241800 24006KT P6SM BKN015
     FM242200 24004KT P6SM SCT015 BKN040 OVC060
      AMD LTD TO CLD VIS AND WIND 2406/2409=

USA.gov is the U.S. government's official web portal to all federal, state and local government web resources and services.